Kandiyohi, Minnesota
Current Conditions -  °F | °C
As of 11:55 PM on Saturday 22 Nov 2014 (Local Time) from KBDH Reporting Station
Haze Haze  
Wind Chill: -1°   Ceiling: Unl
Heat Index:   Visibility: 2.5mi
Dew Point:   Wind: 6mph
Humidity: 100%   Direction: 160°SSE
Pressure: 29.43"   Gusts: NA
Location:  45.13°N, 94.93°W
Report Text: KBDH 230555Z AUTO 16005KT 2 1/2SM BR CLR 02/02 A2943 RMK AO2
Loading
Personal Weather Stations






























Interactive Weather Map New forecast layout! Learn more

10-Day Weather Forecast

Advertisements
Track Severe Weather on mobile